sensor_id;sensor_type;location;lat;lon;timestamp;pressure;altitude;pressure_sealevel;temperature;humidity
57990;BME280;58373;51.824;5.564;2022-07-03T00:01:55;101645.75;;;18.25;68.38
57990;BME280;58373;51.824;5.564;2022-07-03T00:04:21;101641.34;;;18.26;68.48
57990;BME280;58373;51.824;5.564;2022-07-03T00:06:46;101645.56;;;18.19;68.05
57990;BME280;58373;51.824;5.564;2022-07-03T00:09:12;101647.66;;;18.15;67.31
57990;BME280;58373;51.824;5.564;2022-07-03T00:11:38;101646.53;;;18.18;67.30
57990;BME280;58373;51.824;5.564;2022-07-03T00:14:03;101650.31;;;18.23;67.60
57990;BME280;58373;51.824;5.564;2022-07-03T00:16:29;101654.09;;;18.21;67.85
57990;BME280;58373;51.824;5.564;2022-07-03T00:18:55;101652.06;;;18.07;68.19
57990;BME280;58373;51.824;5.564;2022-07-03T00:21:25;101653.78;;;17.98;68.69
57990;BME280;58373;51.824;5.564;2022-07-03T00:24:07;101653.56;;;17.91;68.65
57990;BME280;58373;51.824;5.564;2022-07-03T00:26:36;101662.66;;;17.79;69.00
57990;BME280;58373;51.824;5.564;2022-07-03T00:29:03;101661.22;;;17.67;69.16
57990;BME280;58373;51.824;5.564;2022-07-03T00:31:30;101670.97;;;17.57;69.27
57990;BME280;58373;51.824;5.564;2022-07-03T00:34:00;101668.41;;;17.47;69.93
57990;BME280;58373;51.824;5.564;2022-07-03T00:36:34;101675.63;;;17.45;70.53
57990;BME280;58373;51.824;5.564;2022-07-03T00:39:00;101678.69;;;17.40;71.45
57990;BME280;58373;51.824;5.564;2022-07-03T00:41:28;101620.81;;;17.06;70.85
57990;BME280;58373;51.824;5.564;2022-07-03T00:43:54;101654.25;;;17.40;70.85
57990;BME280;58373;51.824;5.564;2022-07-03T00:46:22;101670.63;;;17.24;70.92
57990;BME280;58373;51.824;5.564;2022-07-03T00:48:49;101670.44;;;17.35;70.74
57990;BME280;58373;51.824;5.564;2022-07-03T00:51:20;101671.09;;;17.37;70.90
57990;BME280;58373;51.824;5.564;2022-07-03T00:53:49;101667.03;;;17.25;71.51
57990;BME280;58373;51.824;5.564;2022-07-03T00:56:15;101663.75;;;17.23;71.80
57990;BME280;58373;51.824;5.564;2022-07-03T00:58:41;101667.88;;;17.25;71.58
57990;BME280;58373;51.824;5.564;2022-07-03T01:01:08;101656.16;;;17.02;71.04
57990;BME280;58373;51.824;5.564;2022-07-03T01:03:39;101664.56;;;17.23;71.10
57990;BME280;58373;51.824;5.564;2022-07-03T01:06:15;101655.22;;;17.21;70.37
57990;BME280;58373;51.824;5.564;2022-07-03T01:08:48;101650.56;;;17.15;70.80
57990;BME280;58373;51.824;5.564;2022-07-03T01:19:35;101675.22;;;16.94;71.94
57990;BME280;58373;51.824;5.564;2022-07-03T01:27:07;101683.00;;;16.86;72.07
57990;BME280;58373;51.824;5.564;2022-07-03T01:29:49;101680.00;;;16.81;71.81
57990;BME280;58373;51.824;5.564;2022-07-03T01:32:16;101672.81;;;16.83;71.22
57990;BME280;58373;51.824;5.564;2022-07-03T01:34:44;101677.81;;;16.67;70.99
57990;BME280;58373;51.824;5.564;2022-07-03T01:37:15;101670.66;;;16.69;71.71
57990;BME280;58373;51.824;5.564;2022-07-03T01:39:44;101662.66;;;16.70;71.57
57990;BME280;58373;51.824;5.564;2022-07-03T01:42:13;101659.31;;;16.68;71.06
57990;BME280;58373;51.824;5.564;2022-07-03T01:44:39;101668.16;;;16.77;71.22
57990;BME280;58373;51.824;5.564;2022-07-03T01:47:06;101668.41;;;16.74;71.80
57990;BME280;58373;51.824;5.564;2022-07-03T01:49:32;101667.47;;;16.65;71.60
57990;BME280;58373;51.824;5.564;2022-07-03T01:51:58;101659.47;;;16.67;71.31
57990;BME280;58373;51.824;5.564;2022-07-03T01:54:25;101666.25;;;16.60;72.28
57990;BME280;58373;51.824;5.564;2022-07-03T01:56:53;101662.13;;;16.57;72.45
57990;BME280;58373;51.824;5.564;2022-07-03T01:59:19;101641.75;;;16.51;72.26
57990;BME280;58373;51.824;5.564;2022-07-03T02:01:53;101666.66;;;16.65;72.63
57990;BME280;58373;51.824;5.564;2022-07-03T02:04:28;101659.06;;;16.62;72.87
57990;BME280;58373;51.824;5.564;2022-07-03T02:07:02;101661.28;;;16.57;72.51
57990;BME280;58373;51.824;5.564;2022-07-03T02:09:49;101662.09;;;16.67;71.88
57990;BME280;58373;51.824;5.564;2022-07-03T02:12:27;101646.47;;;16.48;72.54
57990;BME280;58373;51.824;5.564;2022-07-03T02:15:06;101657.72;;;16.58;72.31
57990;BME280;58373;51.824;5.564;2022-07-03T02:17:37;101658.31;;;16.52;72.64
57990;BME280;58373;51.824;5.564;2022-07-03T02:20:06;101648.38;;;16.45;72.61
57990;BME280;58373;51.824;5.564;2022-07-03T02:22:36;101651.31;;;16.33;72.95
57990;BME280;58373;51.824;5.564;2022-07-03T02:25:18;101641.66;;;16.33;73.10
57990;BME280;58373;51.824;5.564;2022-07-03T02:27:55;101654.50;;;16.36;73.77
57990;BME280;58373;51.824;5.564;2022-07-03T02:30:22;101644.25;;;16.43;73.73
57990;BME280;58373;51.824;5.564;2022-07-03T02:32:50;101648.84;;;16.31;74.22
57990;BME280;58373;51.824;5.564;2022-07-03T02:35:27;101646.34;;;16.39;74.07
57990;BME280;58373;51.824;5.564;2022-07-03T02:37:56;101660.97;;;16.32;74.31
57990;BME280;58373;51.824;5.564;2022-07-03T02:40:28;101653.00;;;16.24;74.49
57990;BME280;58373;51.824;5.564;2022-07-03T02:45:36;101646.81;;;16.25;73.74
57990;BME280;58373;51.824;5.564;2022-07-03T02:48:09;101646.28;;;16.12;74.01
57990;BME280;58373;51.824;5.564;2022-07-03T02:50:40;101656.47;;;16.05;74.52
57990;BME280;58373;51.824;5.564;2022-07-03T02:53:24;101655.94;;;16.02;74.69
57990;BME280;58373;51.824;5.564;2022-07-03T02:56:02;101638.88;;;15.98;74.56
57990;BME280;58373;51.824;5.564;2022-07-03T02:58:48;101637.22;;;15.97;74.48
57990;BME280;58373;51.824;5.564;2022-07-03T03:04:23;101659.53;;;15.91;74.47
57990;BME280;58373;51.824;5.564;2022-07-03T03:07:13;101640.25;;;15.82;74.61
57990;BME280;58373;51.824;5.564;2022-07-03T03:09:44;101665.31;;;15.75;75.25
57990;BME280;58373;51.824;5.564;2022-07-03T03:12:11;101663.13;;;15.71;75.16
57990;BME280;58373;51.824;5.564;2022-07-03T03:14:45;101653.63;;;15.70;75.59
57990;BME280;58373;51.824;5.564;2022-07-03T03:17:19;101662.72;;;15.75;75.46
57990;BME280;58373;51.824;5.564;2022-07-03T03:19:55;101670.44;;;15.67;75.48
57990;BME280;58373;51.824;5.564;2022-07-03T03:25:11;101656.78;;;15.63;75.08
57990;BME280;58373;51.824;5.564;2022-07-03T03:27:36;101665.34;;;15.65;75.94
57990;BME280;58373;51.824;5.564;2022-07-03T03:30:02;101653.78;;;15.68;76.12
57990;BME280;58373;51.824;5.564;2022-07-03T03:32:33;101657.50;;;15.65;76.26
57990;BME280;58373;51.824;5.564;2022-07-03T03:34:59;101662.84;;;15.64;76.04
57990;BME280;58373;51.824;5.564;2022-07-03T03:37:25;101666.94;;;15.57;76.16
57990;BME280;58373;51.824;5.564;2022-07-03T03:39:51;101665.00;;;15.59;76.30
57990;BME280;58373;51.824;5.564;2022-07-03T03:42:16;101668.19;;;15.53;76.25
57990;BME280;58373;51.824;5.564;2022-07-03T03:44:41;101648.53;;;15.49;76.27
57990;BME280;58373;51.824;5.564;2022-07-03T03:47:07;101657.03;;;15.51;76.25
57990;BME280;58373;51.824;5.564;2022-07-03T03:49:33;101654.00;;;15.26;77.03
57990;BME280;58373;51.824;5.564;2022-07-03T03:51:58;101668.88;;;15.55;76.91
57990;BME280;58373;51.824;5.564;2022-07-03T03:54:24;101658.44;;;15.55;76.76
57990;BME280;58373;51.824;5.564;2022-07-03T03:56:49;101657.88;;;15.61;75.81
57990;BME280;58373;51.824;5.564;2022-07-03T03:59:15;101650.75;;;15.63;75.83
57990;BME280;58373;51.824;5.564;2022-07-03T04:01:40;101647.16;;;15.64;75.36
57990;BME280;58373;51.824;5.564;2022-07-03T04:04:06;101651.84;;;15.70;74.75
57990;BME280;58373;51.824;5.564;2022-07-03T04:06:31;101655.69;;;15.76;74.44
57990;BME280;58373;51.824;5.564;2022-07-03T04:08:56;101652.66;;;15.80;73.81
57990;BME280;58373;51.824;5.564;2022-07-03T04:11:22;101653.22;;;15.74;73.91
57990;BME280;58373;51.824;5.564;2022-07-03T04:13:47;101652.66;;;15.80;73.95
57990;BME280;58373;51.824;5.564;2022-07-03T04:16:13;101642.50;;;15.77;74.13
57990;BME280;58373;51.824;5.564;2022-07-03T04:18:38;101655.13;;;15.82;74.50
57990;BME280;58373;51.824;5.564;2022-07-03T04:21:04;101654.31;;;15.81;74.01
57990;BME280;58373;51.824;5.564;2022-07-03T04:23:30;101656.94;;;15.72;74.96
57990;BME280;58373;51.824;5.564;2022-07-03T04:25:55;101666.16;;;15.66;74.87
57990;BME280;58373;51.824;5.564;2022-07-03T04:28:20;101661.72;;;15.57;75.95
57990;BME280;58373;51.824;5.564;2022-07-03T04:30:46;101662.84;;;15.64;75.12
57990;BME280;58373;51.824;5.564;2022-07-03T04:33:12;101666.44;;;15.63;75.44
57990;BME280;58373;51.824;5.564;2022-07-03T04:35:37;101666.16;;;15.66;75.45
57990;BME280;58373;51.824;5.564;2022-07-03T04:38:03;101663.50;;;15.56;75.48
57990;BME280;58373;51.824;5.564;2022-07-03T04:40:29;101667.06;;;15.46;76.46
57990;BME280;58373;51.824;5.564;2022-07-03T04:42:54;101661.03;;;15.55;75.59
57990;BME280;58373;51.824;5.564;2022-07-03T04:45:20;101673.41;;;15.53;76.19
57990;BME280;58373;51.824;5.564;2022-07-03T04:47:45;101674.69;;;15.68;75.41
57990;BME280;58373;51.824;5.564;2022-07-03T04:50:11;101679.63;;;15.71;74.69
57990;BME280;58373;51.824;5.564;2022-07-03T04:52:36;101673.88;;;15.68;75.26
57990;BME280;58373;51.824;5.564;2022-07-03T04:55:01;101682.66;;;15.76;75.31
57990;BME280;58373;51.824;5.564;2022-07-03T04:57:27;101679.94;;;15.68;76.27
57990;BME280;58373;51.824;5.564;2022-07-03T04:59:53;101672.19;;;15.76;75.44
57990;BME280;58373;51.824;5.564;2022-07-03T05:02:19;101662.59;;;15.67;76.05
57990;BME280;58373;51.824;5.564;2022-07-03T05:04:44;101673.56;;;15.71;76.57
57990;BME280;58373;51.824;5.564;2022-07-03T05:07:09;101680.06;;;15.66;76.61
57990;BME280;58373;51.824;5.564;2022-07-03T05:09:35;101685.00;;;15.70;76.88
57990;BME280;58373;51.824;5.564;2022-07-03T05:12:00;101684.59;;;15.74;76.40
57990;BME280;58373;51.824;5.564;2022-07-03T05:14:25;101684.47;;;15.66;76.40
57990;BME280;58373;51.824;5.564;2022-07-03T05:16:51;101679.38;;;15.74;75.79
57990;BME280;58373;51.824;5.564;2022-07-03T05:19:16;101690.41;;;15.78;76.49
57990;BME280;58373;51.824;5.564;2022-07-03T05:21:42;101685.41;;;15.65;76.66
57990;BME280;58373;51.824;5.564;2022-07-03T05:24:07;101690.09;;;15.71;76.87
57990;BME280;58373;51.824;5.564;2022-07-03T05:26:32;101696.44;;;15.69;78.22
57990;BME280;58373;51.824;5.564;2022-07-03T05:28:58;101685.28;;;15.76;77.37
57990;BME280;58373;51.824;5.564;2022-07-03T05:31:23;101699.47;;;15.83;76.68
57990;BME280;58373;51.824;5.564;2022-07-03T05:33:48;101700.28;;;15.93;77.23
57990;BME280;58373;51.824;5.564;2022-07-03T05:36:14;101672.75;;;15.80;77.77
57990;BME280;58373;51.824;5.564;2022-07-03T05:38:39;101686.78;;;16.08;76.87
57990;BME280;58373;51.824;5.564;2022-07-03T05:41:23;101696.03;;;16.12;77.67
57990;BME280;58373;51.824;5.564;2022-07-03T05:43:48;101696.97;;;16.11;76.94
57990;BME280;58373;51.824;5.564;2022-07-03T05:46:14;101692.44;;;16.13;77.35
57990;BME280;58373;51.824;5.564;2022-07-03T05:48:40;101690.91;;;16.20;76.77
57990;BME280;58373;51.824;5.564;2022-07-03T05:51:05;101695.06;;;16.13;77.00
57990;BME280;58373;51.824;5.564;2022-07-03T05:53:31;101692.53;;;16.21;77.61
57990;BME280;58373;51.824;5.564;2022-07-03T05:55:57;101697.47;;;16.34;77.35
57990;BME280;58373;51.824;5.564;2022-07-03T05:58:23;101704.34;;;16.44;77.56
57990;BME280;58373;51.824;5.564;2022-07-03T06:00:48;101712.03;;;16.56;76.63
57990;BME280;58373;51.824;5.564;2022-07-03T06:03:14;101704.88;;;16.58;77.62
57990;BME280;58373;51.824;5.564;2022-07-03T06:05:39;101691.31;;;16.62;76.97
57990;BME280;58373;51.824;5.564;2022-07-03T06:08:05;101697.25;;;16.74;76.57
57990;BME280;58373;51.824;5.564;2022-07-03T06:10:32;101696.00;;;16.78;76.18
57990;BME280;58373;51.824;5.564;2022-07-03T06:12:58;101700.97;;;16.81;76.30
57990;BME280;58373;51.824;5.564;2022-07-03T06:15:24;101700.38;;;16.87;76.51
57990;BME280;58373;51.824;5.564;2022-07-03T06:17:49;101700.84;;;17.01;75.86
57990;BME280;58373;51.824;5.564;2022-07-03T06:20:15;101707.06;;;16.99;75.73
57990;BME280;58373;51.824;5.564;2022-07-03T06:22:41;101703.88;;;17.06;75.97
57990;BME280;58373;51.824;5.564;2022-07-03T06:25:06;101705.22;;;17.10;75.41
57990;BME280;58373;51.824;5.564;2022-07-03T06:27:32;101709.88;;;17.16;75.95
57990;BME280;58373;51.824;5.564;2022-07-03T06:29:58;101711.38;;;17.18;75.88
57990;BME280;58373;51.824;5.564;2022-07-03T06:32:23;101708.31;;;17.23;75.83
57990;BME280;58373;51.824;5.564;2022-07-03T06:34:48;101712.09;;;17.38;75.03
57990;BME280;58373;51.824;5.564;2022-07-03T06:37:14;101711.41;;;17.36;75.66
57990;BME280;58373;51.824;5.564;2022-07-03T06:39:39;101706.09;;;17.46;75.26
57990;BME280;58373;51.824;5.564;2022-07-03T06:42:05;101698.41;;;17.44;74.39
57990;BME280;58373;51.824;5.564;2022-07-03T06:44:30;101709.34;;;17.58;76.00
57990;BME280;58373;51.824;5.564;2022-07-03T06:46:56;101715.50;;;17.66;76.08
57990;BME280;58373;51.824;5.564;2022-07-03T06:49:21;101709.78;;;17.71;74.98
57990;BME280;58373;51.824;5.564;2022-07-03T06:51:47;101709.91;;;17.79;74.49
57990;BME280;58373;51.824;5.564;2022-07-03T06:54:12;101721.81;;;17.91;73.32
57990;BME280;58373;51.824;5.564;2022-07-03T06:56:37;101711.59;;;17.88;74.41
57990;BME280;58373;51.824;5.564;2022-07-03T06:59:03;101715.63;;;18.00;74.31
57990;BME280;58373;51.824;5.564;2022-07-03T07:01:28;101707.47;;;18.03;75.02
57990;BME280;58373;51.824;5.564;2022-07-03T07:03:53;101713.00;;;18.18;73.67
57990;BME280;58373;51.824;5.564;2022-07-03T07:06:19;101708.88;;;18.16;73.45
57990;BME280;58373;51.824;5.564;2022-07-03T07:08:44;101705.34;;;18.25;73.67
57990;BME280;58373;51.824;5.564;2022-07-03T07:11:10;101711.78;;;18.30;73.70
57990;BME280;58373;51.824;5.564;2022-07-03T07:13:35;101704.03;;;18.29;72.56
57990;BME280;58373;51.824;5.564;2022-07-03T07:16:00;101704.75;;;18.39;72.57
57990;BME280;58373;51.824;5.564;2022-07-03T07:18:26;101711.75;;;18.56;72.50
57990;BME280;58373;51.824;5.564;2022-07-03T07:20:52;101705.88;;;18.63;72.32
57990;BME280;58373;51.824;5.564;2022-07-03T07:23:17;101706.97;;;18.70;71.57
57990;BME280;58373;51.824;5.564;2022-07-03T07:25:42;101715.69;;;18.78;71.26
57990;BME280;58373;51.824;5.564;2022-07-03T07:28:08;101708.69;;;18.87;71.23
57990;BME280;58373;51.824;5.564;2022-07-03T07:30:33;101707.63;;;18.80;71.97
57990;BME280;58373;51.824;5.564;2022-07-03T07:32:58;101722.94;;;18.84;71.53
57990;BME280;58373;51.824;5.564;2022-07-03T07:35:24;101726.91;;;18.89;70.47
57990;BME280;58373;51.824;5.564;2022-07-03T07:37:49;101730.34;;;18.81;68.30
57990;BME280;58373;51.824;5.564;2022-07-03T07:40:15;101736.13;;;18.93;70.04
57990;BME280;58373;51.824;5.564;2022-07-03T07:42:40;101726.16;;;19.04;67.58
57990;BME280;58373;51.824;5.564;2022-07-03T07:45:08;101737.69;;;19.12;68.18
57990;BME280;58373;51.824;5.564;2022-07-03T07:47:34;101733.13;;;19.22;68.21
57990;BME280;58373;51.824;5.564;2022-07-03T07:49:59;101717.66;;;19.19;68.03
57990;BME280;58373;51.824;5.564;2022-07-03T07:52:24;101739.38;;;19.29;66.47
57990;BME280;58373;51.824;5.564;2022-07-03T07:54:50;101734.19;;;19.45;66.94
57990;BME280;58373;51.824;5.564;2022-07-03T07:57:15;101737.84;;;19.60;67.05
57990;BME280;58373;51.824;5.564;2022-07-03T07:59:41;101739.44;;;19.53;65.41
57990;BME280;58373;51.824;5.564;2022-07-03T08:02:06;101728.00;;;19.62;65.63
57990;BME280;58373;51.824;5.564;2022-07-03T08:04:50;101739.69;;;19.84;64.42
57990;BME280;58373;51.824;5.564;2022-07-03T08:07:34;101747.09;;;19.89;65.39
57990;BME280;58373;51.824;5.564;2022-07-03T08:09:59;101750.06;;;19.94;63.91
57990;BME280;58373;51.824;5.564;2022-07-03T08:12:25;101744.47;;;19.97;63.96
57990;BME280;58373;51.824;5.564;2022-07-03T08:14:50;101748.72;;;20.06;65.12
57990;BME280;58373;51.824;5.564;2022-07-03T08:17:15;101751.72;;;20.03;64.50
57990;BME280;58373;51.824;5.564;2022-07-03T08:19:41;101745.75;;;20.01;64.17
57990;BME280;58373;51.824;5.564;2022-07-03T08:22:06;101753.84;;;20.16;64.93
57990;BME280;58373;51.824;5.564;2022-07-03T08:24:31;101748.41;;;20.26;63.70
57990;BME280;58373;51.824;5.564;2022-07-03T08:26:57;101744.47;;;20.13;65.15
57990;BME280;58373;51.824;5.564;2022-07-03T08:29:22;101752.19;;;20.31;66.86
57990;BME280;58373;51.824;5.564;2022-07-03T08:31:48;101758.28;;;20.32;65.24
57990;BME280;58373;51.824;5.564;2022-07-03T08:34:13;101760.06;;;20.64;64.40
57990;BME280;58373;51.824;5.564;2022-07-03T08:36:42;101753.00;;;20.64;65.32
57990;BME280;58373;51.824;5.564;2022-07-03T08:39:08;101749.69;;;20.71;64.62
57990;BME280;58373;51.824;5.564;2022-07-03T08:41:37;101757.84;;;20.92;66.59
57990;BME280;58373;51.824;5.564;2022-07-03T08:44:04;101751.88;;;21.06;63.94
57990;BME280;58373;51.824;5.564;2022-07-03T08:46:31;101762.19;;;21.16;64.66
57990;BME280;58373;51.824;5.564;2022-07-03T08:49:01;101765.16;;;20.82;61.95
57990;BME280;58373;51.824;5.564;2022-07-03T08:51:27;101749.59;;;20.95;62.61
57990;BME280;58373;51.824;5.564;2022-07-03T08:53:53;101750.91;;;20.91;64.25
57990;BME280;58373;51.824;5.564;2022-07-03T08:56:23;101753.41;;;21.32;62.50
57990;BME280;58373;51.824;5.564;2022-07-03T08:58:49;101755.22;;;21.31;61.09
57990;BME280;58373;51.824;5.564;2022-07-03T09:01:16;101757.69;;;21.33;62.38
57990;BME280;58373;51.824;5.564;2022-07-03T09:03:42;101750.47;;;21.18;62.34
57990;BME280;58373;51.824;5.564;2022-07-03T09:06:08;101748.44;;;21.37;63.09
57990;BME280;58373;51.824;5.564;2022-07-03T09:08:34;101749.25;;;21.37;62.03
57990;BME280;58373;51.824;5.564;2022-07-03T09:10:59;101746.97;;;21.26;60.86
57990;BME280;58373;51.824;5.564;2022-07-03T09:13:24;101747.50;;;21.30;61.14
57990;BME280;58373;51.824;5.564;2022-07-03T09:15:50;101743.94;;;21.06;60.37
57990;BME280;58373;51.824;5.564;2022-07-03T09:18:15;101744.16;;;21.36;61.95
57990;BME280;58373;51.824;5.564;2022-07-03T09:20:41;101757.88;;;21.62;61.66
57990;BME280;58373;51.824;5.564;2022-07-03T09:23:16;101753.88;;;21.66;61.78
57990;BME280;58373;51.824;5.564;2022-07-03T09:28:23;101749.94;;;21.62;60.66
57990;BME280;58373;51.824;5.564;2022-07-03T09:30:59;101745.91;;;21.74;60.96
57990;BME280;58373;51.824;5.564;2022-07-03T09:33:26;101747.97;;;22.02;61.05
57990;BME280;58373;51.824;5.564;2022-07-03T09:35:55;101750.50;;;21.95;59.30
57990;BME280;58373;51.824;5.564;2022-07-03T09:38:21;101741.19;;;21.85;57.92
57990;BME280;58373;51.824;5.564;2022-07-03T09:40:53;101752.81;;;21.76;60.25
57990;BME280;58373;51.824;5.564;2022-07-03T09:43:30;101743.63;;;22.09;60.89
57990;BME280;58373;51.824;5.564;2022-07-03T09:46:01;101757.72;;;22.24;60.57
57990;BME280;58373;51.824;5.564;2022-07-03T09:48:33;101757.22;;;22.44;60.70
57990;BME280;58373;51.824;5.564;2022-07-03T09:54:03;101767.63;;;22.60;58.83
57990;BME280;58373;51.824;5.564;2022-07-03T09:56:38;101764.78;;;22.47;57.55
57990;BME280;58373;51.824;5.564;2022-07-03T09:59:04;101762.34;;;22.60;57.10
57990;BME280;58373;51.824;5.564;2022-07-03T10:01:31;101770.06;;;22.32;58.27
57990;BME280;58373;51.824;5.564;2022-07-03T10:04:17;101772.84;;;22.31;57.91
57990;BME280;58373;51.824;5.564;2022-07-03T10:09:11;101763.38;;;22.21;56.24
57990;BME280;58373;51.824;5.564;2022-07-03T10:11:40;101767.56;;;22.31;57.04
57990;BME280;58373;51.824;5.564;2022-07-03T10:14:06;101770.72;;;22.49;56.08
57990;BME280;58373;51.824;5.564;2022-07-03T10:16:31;101771.19;;;22.82;57.08
57990;BME280;58373;51.824;5.564;2022-07-03T10:18:57;101765.34;;;22.87;56.04
57990;BME280;58373;51.824;5.564;2022-07-03T10:21:22;101772.56;;;22.93;56.31
57990;BME280;58373;51.824;5.564;2022-07-03T10:23:48;101766.94;;;22.96;54.43
57990;BME280;58373;51.824;5.564;2022-07-03T10:26:14;101760.31;;;23.21;54.66
57990;BME280;58373;51.824;5.564;2022-07-03T10:28:40;101755.22;;;23.05;54.26
57990;BME280;58373;51.824;5.564;2022-07-03T10:31:06;101768.91;;;23.23;54.30
57990;BME280;58373;51.824;5.564;2022-07-03T10:33:33;101764.91;;;22.98;54.68
57990;BME280;58373;51.824;5.564;2022-07-03T10:36:02;101765.25;;;23.24;54.77
57990;BME280;58373;51.824;5.564;2022-07-03T10:38:37;101773.53;;;23.21;55.13
57990;BME280;58373;51.824;5.564;2022-07-03T10:44:07;101777.63;;;23.39;53.53
57990;BME280;58373;51.824;5.564;2022-07-03T10:46:52;101781.28;;;23.38;54.68
57990;BME280;58373;51.824;5.564;2022-07-03T10:49:17;101782.03;;;23.31;54.45
57990;BME280;58373;51.824;5.564;2022-07-03T10:51:57;101780.47;;;23.37;54.83
57990;BME280;58373;51.824;5.564;2022-07-03T10:54:28;101781.22;;;23.31;54.75
57990;BME280;58373;51.824;5.564;2022-07-03T11:07:21;101781.94;;;23.61;52.14
57990;BME280;58373;51.824;5.564;2022-07-03T11:15:40;101785.69;;;23.30;54.78
57990;BME280;58373;51.824;5.564;2022-07-03T11:20:37;101767.34;;;23.65;53.55
57990;BME280;58373;51.824;5.564;2022-07-03T11:26:00;101757.91;;;23.77;50.89
57990;BME280;58373;51.824;5.564;2022-07-03T11:41:21;101759.34;;;23.80;53.06
57990;BME280;58373;51.824;5.564;2022-07-03T11:43:48;101757.13;;;23.62;51.27
57990;BME280;58373;51.824;5.564;2022-07-03T11:46:24;101758.91;;;23.98;51.83
57990;BME280;58373;51.824;5.564;2022-07-03T11:49:24;101758.16;;;23.82;53.09
57990;BME280;58373;51.824;5.564;2022-07-03T11:51:57;101757.13;;;24.05;51.61
57990;BME280;58373;51.824;5.564;2022-07-03T11:54:23;101761.81;;;24.03;53.21
57990;BME280;58373;51.824;5.564;2022-07-03T11:56:49;101762.94;;;24.15;52.65
57990;BME280;58373;51.824;5.564;2022-07-03T11:59:14;101760.16;;;24.30;52.76
57990;BME280;58373;51.824;5.564;2022-07-03T12:01:39;101760.75;;;23.97;53.33
57990;BME280;58373;51.824;5.564;2022-07-03T12:04:13;101764.16;;;24.19;53.34
57990;BME280;58373;51.824;5.564;2022-07-03T12:09:14;101750.66;;;23.86;50.78
57990;BME280;58373;51.824;5.564;2022-07-03T12:11:39;101742.09;;;24.12;51.27
57990;BME280;58373;51.824;5.564;2022-07-03T12:14:05;101748.66;;;24.16;52.72
57990;BME280;58373;51.824;5.564;2022-07-03T12:16:34;101755.59;;;24.17;49.12
57990;BME280;58373;51.824;5.564;2022-07-03T12:19:04;101752.41;;;24.28;47.42
57990;BME280;58373;51.824;5.564;2022-07-03T12:21:36;101753.03;;;24.30;49.05
57990;BME280;58373;51.824;5.564;2022-07-03T12:24:10;101748.09;;;24.49;48.28
57990;BME280;58373;51.824;5.564;2022-07-03T12:26:35;101749.00;;;24.62;44.80
57990;BME280;58373;51.824;5.564;2022-07-03T12:29:09;101760.34;;;24.50;47.55
57990;BME280;58373;51.824;5.564;2022-07-03T12:31:38;101757.66;;;24.43;48.26
57990;BME280;58373;51.824;5.564;2022-07-03T12:34:04;101748.25;;;24.41;45.64
57990;BME280;58373;51.824;5.564;2022-07-03T12:36:30;101746.53;;;24.61;46.28
57990;BME280;58373;51.824;5.564;2022-07-03T12:38:57;101751.66;;;24.62;46.38
57990;BME280;58373;51.824;5.564;2022-07-03T12:41:23;101757.06;;;24.48;47.15
57990;BME280;58373;51.824;5.564;2022-07-03T12:43:50;101747.38;;;24.12;49.30
57990;BME280;58373;51.824;5.564;2022-07-03T12:46:33;101749.41;;;24.10;49.06
57990;BME280;58373;51.824;5.564;2022-07-03T12:49:07;101743.22;;;23.60;48.25
57990;BME280;58373;51.824;5.564;2022-07-03T12:51:46;101757.97;;;23.48;50.57
57990;BME280;58373;51.824;5.564;2022-07-03T12:54:22;101755.03;;;23.21;50.40
57990;BME280;58373;51.824;5.564;2022-07-03T12:57:10;101759.97;;;23.24;50.24
57990;BME280;58373;51.824;5.564;2022-07-03T13:00:10;101753.97;;;23.01;50.93
57990;BME280;58373;51.824;5.564;2022-07-03T13:02:40;101759.59;;;22.68;51.92
57990;BME280;58373;51.824;5.564;2022-07-03T13:07:41;101762.34;;;22.60;49.04
57990;BME280;58373;51.824;5.564;2022-07-03T13:10:07;101760.75;;;22.89;52.39
57990;BME280;58373;51.824;5.564;2022-07-03T13:12:33;101757.25;;;23.03;51.00
57990;BME280;58373;51.824;5.564;2022-07-03T13:14:59;101757.09;;;22.90;48.69
57990;BME280;58373;51.824;5.564;2022-07-03T13:18:05;101763.81;;;23.07;50.60
57990;BME280;58373;51.824;5.564;2022-07-03T13:20:31;101761.38;;;22.91;50.04
57990;BME280;58373;51.824;5.564;2022-07-03T13:23:02;101755.03;;;23.21;49.52
57990;BME280;58373;51.824;5.564;2022-07-03T13:25:29;101753.53;;;23.33;47.86
57990;BME280;58373;51.824;5.564;2022-07-03T13:28:09;101763.81;;;23.07;49.15
57990;BME280;58373;51.824;5.564;2022-07-03T13:30:35;101764.72;;;22.85;46.58
57990;BME280;58373;51.824;5.564;2022-07-03T13:33:02;101758.44;;;23.00;47.87
57990;BME280;58373;51.824;5.564;2022-07-03T13:35:28;101757.88;;;23.20;48.39
57990;BME280;58373;51.824;5.564;2022-07-03T13:37:53;101745.34;;;23.28;47.55
57990;BME280;58373;51.824;5.564;2022-07-03T13:40:18;101760.03;;;23.67;47.50
57990;BME280;58373;51.824;5.564;2022-07-03T13:42:44;101761.09;;;23.51;46.08
57990;BME280;58373;51.824;5.564;2022-07-03T13:45:10;101758.25;;;23.53;47.56
57990;BME280;58373;51.824;5.564;2022-07-03T13:47:36;101764.50;;;23.30;48.10
57990;BME280;58373;51.824;5.564;2022-07-03T13:50:02;101765.72;;;22.84;48.61
57990;BME280;58373;51.824;5.564;2022-07-03T13:52:28;101764.56;;;23.01;49.18
57990;BME280;58373;51.824;5.564;2022-07-03T13:54:53;101776.63;;;22.89;50.34
57990;BME280;58373;51.824;5.564;2022-07-03T13:57:19;101777.06;;;22.92;51.11
57990;BME280;58373;51.824;5.564;2022-07-03T13:59:44;101774.56;;;22.61;50.54
57990;BME280;58373;51.824;5.564;2022-07-03T14:02:09;101772.00;;;22.53;51.24
57990;BME280;58373;51.824;5.564;2022-07-03T14:04:35;101771.88;;;22.32;50.23
57990;BME280;58373;51.824;5.564;2022-07-03T14:07:00;101761.06;;;22.56;50.23
57990;BME280;58373;51.824;5.564;2022-07-03T14:09:26;101784.00;;;22.41;51.76